Time;durP1;ratioP1;P1;durP2;ratioP2;P2;SDS_P1;SDS_P2;PMS_P1;PMS_P2;Temp;Humidity;BMP_temperature;BMP_pressure;BME280_temperature;BME280_humidity;BME280_pressure;Samples;Min_cycle;Max_cycle;Signal;HPM_P1;HPM_P2
2021/03/26 00:03:39;;;;;;;246.17;107.77;;;;;;;3.50;71.62;99200.64;239782;1193;23241;-75
2021/03/26 00:08:42;;;;;;;238.43;102.77;;;;;;;3.45;71.43;99195.23;239751;1193;26220;-74
2021/03/26 00:13:45;;;;;;;295.83;120.77;;;;;;;3.36;71.45;99201.92;240016;1199;23113;-75
2021/03/26 00:18:49;;;;;;;303.93;129.10;;;;;;;3.30;70.91;99205.47;239784;1196;23109;-75
2021/03/26 00:23:52;;;;;;;301.73;127.43;;;;;;;3.23;71.47;99216.17;239706;1193;23105;-76
2021/03/26 00:28:56;;;;;;;296.40;126.17;;;;;;;3.14;71.50;99205.12;239834;1193;24750;-75
2021/03/26 00:33:58;;;;;;;271.70;111.30;;;;;;;3.05;71.46;99211.77;239554;1193;23105;-74
2021/03/26 00:39:04;;;;;;;255.43;108.23;;;;;;;3.03;71.71;99203.27;239633;1196;23132;-75
2021/03/26 00:44:06;;;;;;;237.37;104.07;;;;;;;2.99;72.45;99194.16;239522;1193;23081;-75
2021/03/26 00:49:11;;;;;;;243.13;108.57;;;;;;;2.99;72.87;99184.38;239618;1195;23183;-75
2021/03/26 00:54:17;;;;;;;234.80;102.15;;;;;;;2.93;72.21;99189.80;239603;1196;25961;-75
2021/03/26 00:59:20;;;;;;;229.30;93.70;;;;;;;2.88;72.48;99187.81;239599;1196;23122;-75
2021/03/26 01:04:23;;;;;;;220.90;91.50;;;;;;;2.89;72.41;99187.58;239892;1199;23097;-74
2021/03/26 01:09:26;;;;;;;214.13;90.00;;;;;;;2.94;73.15;99194.86;239612;1198;23107;-74
2021/03/26 01:14:28;;;;;;;260.30;107.23;;;;;;;2.93;72.76;99185.30;239634;1197;23237;-75
2021/03/26 01:19:32;;;;;;;215.17;96.80;;;;;;;2.84;72.87;99186.66;239671;1196;23105;-75
2021/03/26 01:24:35;;;;;;;233.35;100.05;;;;;;;2.81;72.89;99176.53;239826;1193;23133;-76
2021/03/26 01:29:39;;;;;;;222.90;93.07;;;;;;;2.80;72.95;99188.96;239833;1193;23107;-76
2021/03/26 01:34:44;;;;;;;255.85;106.65;;;;;;;2.78;73.12;99190.22;239895;1193;23132;-75
2021/03/26 01:39:46;;;;;;;245.80;102.40;;;;;;;2.73;73.46;99185.61;239718;1193;23111;-75
2021/03/26 01:44:52;;;;;;;225.20;94.83;;;;;;;2.70;73.58;99186.05;239904;1193;23096;-75
2021/03/26 01:50:00;;;;;;;225.17;92.83;;;;;;;2.66;73.65;99185.70;239648;1197;26217;-76
2021/03/26 01:55:09;;;;;;;225.55;91.50;;;;;;;2.67;73.39;99182.04;239384;1196;23111;-74
2021/03/26 02:00:20;;;;;;;245.10;101.90;;;;;;;2.69;73.86;99185.25;239703;1193;23095;-75
2021/03/26 02:05:30;;;;;;;226.90;98.00;;;;;;;2.69;73.48;99189.74;239445;1193;23099;-76
2021/03/26 02:11:04;;;;;;;225.50;95.10;;;;;;;2.67;73.87;99197.91;239607;1199;26393;-75
2021/03/26 02:16:12;;;;;;;214.93;90.60;;;;;;;2.61;73.74;99193.50;239531;1196;23102;-75
2021/03/26 02:21:32;;;;;;;217.60;89.83;;;;;;;2.58;73.74;99195.81;239756;1194;23118;-75
2021/03/26 02:26:41;;;;;;;192.40;84.90;;;;;;;2.56;74.09;99196.01;239718;1199;23105;-76
2021/03/26 02:31:45;;;;;;;172.37;75.30;;;;;;;2.54;74.34;99198.88;239648;1193;23128;-74
2021/03/26 02:36:53;;;;;;;168.20;74.20;;;;;;;2.55;74.37;99205.80;239719;1193;23135;-74
2021/03/26 02:42:01;;;;;;;161.10;68.27;;;;;;;2.51;74.25;99203.83;239555;1199;26301;-75
2021/03/26 02:47:17;;;;;;;159.67;65.77;;;;;;;2.47;74.38;99218.53;239904;1193;23155;-74
2021/03/26 02:52:36;;;;;;;139.97;62.70;;;;;;;2.45;74.76;99213.47;239448;1196;23259;-75
2021/03/26 02:57:48;;;;;;;148.03;62.53;;;;;;;2.48;74.70;99215.66;239467;1196;23422;-76
2021/03/26 03:02:55;;;;;;;154.67;66.97;;;;;;;2.48;74.91;99214.86;239478;1193;25992;-76
2021/03/26 03:08:21;;;;;;;166.47;69.40;;;;;;;2.39;74.14;99216.99;239493;1198;23105;-75
2021/03/26 03:13:44;;;;;;;177.47;74.17;;;;;;;2.36;74.78;99222.73;239791;1193;23269;-74
2021/03/26 03:19:02;;;;;;;189.35;81.60;;;;;;;2.32;74.73;99221.56;239547;1196;23115;-75
2021/03/26 03:24:14;;;;;;;200.80;87.30;;;;;;;2.25;74.85;99226.92;239804;1199;23101;-74
2021/03/26 03:29:25;;;;;;;192.80;84.43;;;;;;;2.19;74.60;99220.70;239687;1193;23305;-75
2021/03/26 03:35:01;;;;;;;215.93;89.10;;;;;;;2.09;74.86;99216.98;239952;1194;23122;-73
2021/03/26 03:40:18;;;;;;;190.43;82.03;;;;;;;2.01;74.94;99220.72;239569;1193;23102;-75
2021/03/26 03:45:31;;;;;;;177.15;75.90;;;;;;;1.96;75.07;99217.92;239700;1196;23153;-75
2021/03/26 03:50:57;;;;;;;156.43;66.73;;;;;;;1.93;74.90;99221.84;239760;1196;23205;-77
2021/03/26 03:56:13;;;;;;;170.45;72.70;;;;;;;1.92;74.77;99224.67;239556;1196;23068;-75
2021/03/26 04:01:19;;;;;;;163.07;66.30;;;;;;;1.88;74.81;99217.19;239623;1196;23106;-76
2021/03/26 04:06:39;;;;;;;140.10;60.47;;;;;;;1.92;75.28;99216.74;239627;1196;23128;-74
2021/03/26 04:11:54;;;;;;;155.47;68.27;;;;;;;1.96;75.80;99218.75;239656;1197;26259;-75
2021/03/26 04:17:33;;;;;;;152.43;65.60;;;;;;;1.97;75.65;99208.97;239666;1199;23137;-75
2021/03/26 04:22:58;;;;;;;138.35;61.10;;;;;;;1.98;75.14;99215.88;239503;1196;23422;-74
2021/03/26 04:28:20;;;;;;;134.00;57.83;;;;;;;1.97;75.79;99220.37;239610;1196;23123;-75
2021/03/26 04:33:35;;;;;;;130.45;58.20;;;;;;;1.98;76.02;99215.88;239379;1196;23107;-75
2021/03/26 04:39:00;;;;;;;121.07;52.83;;;;;;;1.99;75.63;99215.66;239476;1196;23115;-75
2021/03/26 04:44:14;;;;;;;125.27;51.50;;;;;;;1.97;76.09;99203.69;239612;1195;23106;-75
2021/03/26 04:49:40;;;;;;;113.67;50.50;;;;;;;1.99;76.36;99206.93;239542;1193;24759;-75
2021/03/26 04:54:54;;;;;;;110.80;47.35;;;;;;;2.07;76.65;99214.56;239615;1193;26273;-74
2021/03/26 05:00:33;;;;;;;110.90;47.30;;;;;;;2.14;76.56;99214.46;239275;1193;23149;-75
2021/03/26 05:05:43;;;;;;;104.77;47.67;;;;;;;2.14;76.00;99217.93;239569;1193;23126;-76
2021/03/26 05:10:57;;;;;;;;;;;;;;;2.17;76.19;99219.30;239881;1201;23273;-75
2021/03/26 05:16:06;;;;;;;98.87;43.67;;;;;;;2.19;75.73;99220.70;239640;1193;21873;-75
2021/03/26 05:21:53;;;;;;;87.00;44.90;;;;;;;2.28;76.00;99233.61;239818;1196;23571;-75
2021/03/26 05:27:16;;;;;;;97.63;44.53;;;;;;;2.32;76.38;99232.97;239714;1193;23125;-75
2021/03/26 05:32:43;;;;;;;84.20;42.15;;;;;;;2.42;76.63;99229.79;239741;1199;23168;-75
2021/03/26 05:38:22;;;;;;;103.85;44.50;;;;;;;2.54;76.60;99237.76;239729;1193;23666;-76
2021/03/26 05:44:09;;;;;;;93.50;42.70;;;;;;;2.71;76.33;99238.75;239606;1199;23109;-75
2021/03/26 05:49:26;;;;;;;90.00;42.13;;;;;;;2.93;76.65;99245.38;239742;1193;23267;-75
2021/03/26 05:54:56;;;;;;;78.80;38.50;;;;;;;3.11;76.54;99239.20;239608;1196;23163;-75
2021/03/26 06:00:37;;;;;;;75.90;37.80;;;;;;;3.28;76.33;99240.13;239789;1193;23160;-74
2021/03/26 06:06:16;;;;;;;85.88;41.40;;;;;;;3.48;76.10;99238.99;239100;1196;23125;-75
2021/03/26 06:11:56;;;;;;;87.70;39.15;;;;;;;3.70;76.22;99240.02;239497;1196;23128;-76
2021/03/26 06:17:34;;;;;;;96.33;46.73;;;;;;;3.97;75.88;99244.83;239899;1193;23138;-74
2021/03/26 06:23:13;;;;;;;95.73;48.17;;;;;;;4.23;75.84;99240.86;240017;1193;23082;-75
2021/03/26 06:28:46;;;;;;;88.80;41.47;;;;;;;4.47;75.46;99251.39;239821;1193;23113;-75
2021/03/26 06:34:36;;;;;;;77.50;39.50;;;;;;;4.69;75.15;99253.41;239937;1193;23103;-76
2021/03/26 06:40:11;;;;;;;87.33;40.80;;;;;;;4.92;74.54;99253.27;239788;1193;23111;-75
2021/03/26 06:45:55;;;;;;;92.93;44.90;;;;;;;5.21;75.18;99253.22;239932;1196;23108;-75
2021/03/26 06:51:06;;;;;;;86.23;41.80;;;;;;;5.50;74.29;99255.80;240080;1196;23115;-75
2021/03/26 06:56:52;;;;;;;79.80;42.50;;;;;;;5.73;74.35;99262.77;239831;1194;25005;-75
2021/03/26 07:02:12;;;;;;;92.73;43.93;;;;;;;5.96;73.96;99259.11;240149;1195;23115;-74
2021/03/26 07:07:57;;;;;;;86.70;45.25;;;;;;;6.22;73.28;99256.79;240606;1193;25860;-76
2021/03/26 07:13:29;;;;;;;85.00;44.30;;;;;;;6.36;72.62;99257.22;240365;1195;23136;-74
2021/03/26 07:18:47;;;;;;;97.73;49.93;;;;;;;6.48;72.58;99247.25;240464;1196;26169;-73
2021/03/26 07:24:20;;;;;;;81.45;41.25;;;;;;;6.73;71.90;99253.09;240355;1196;23444;-74
2021/03/26 07:29:33;;;;;;;89.77;46.77;;;;;;;6.94;71.65;99254.91;240175;1196;23198;-73
2021/03/26 07:34:54;;;;;;;84.73;43.70;;;;;;;7.24;71.06;99263.42;240165;1193;23109;-73
2021/03/26 07:40:00;;;;;;;97.45;50.75;;;;;;;7.53;70.77;99261.24;240215;1195;23190;-72
2021/03/26 07:45:15;;;;;;;84.90;44.27;;;;;;;7.90;70.68;99264.94;240159;1193;23142;-72
2021/03/26 07:50:41;;;;;;;90.07;48.70;;;;;;;8.09;70.51;99265.31;240104;1196;23132;-73
2021/03/26 07:55:59;;;;;;;90.00;47.60;;;;;;;8.52;70.82;99260.68;240097;1196;23078;-72
2021/03/26 08:01:17;;;;;;;80.63;44.80;;;;;;;8.82;69.55;99270.64;240185;1193;23105;-73
2021/03/26 08:07:02;;;;;;;84.83;46.60;;;;;;;9.09;69.50;99274.95;240121;1195;23112;-74
2021/03/26 08:12:11;;;;;;;88.40;46.80;;;;;;;9.41;68.98;99274.72;239984;1193;23110;-74
2021/03/26 08:17:43;;;;;;;75.97;40.73;;;;;;;9.68;68.17;99278.16;239895;1196;24260;-74
2021/03/26 08:23:12;;;;;;;73.97;40.23;;;;;;;10.00;67.93;99288.52;239942;1199;23124;-74
2021/03/26 08:28:42;;;;;;;78.80;43.20;;;;;;;10.32;67.60;99278.53;240105;1196;23115;-75
2021/03/26 08:34:05;;;;;;;72.40;41.03;;;;;;;10.66;66.94;99281.36;240027;1193;23106;-73
2021/03/26 08:39:53;;;;;;;69.80;38.97;;;;;;;11.03;66.73;99277.38;240043;1193;23095;-74
2021/03/26 08:45:08;;;;;;;71.47;39.63;;;;;;;11.40;66.18;99280.58;239912;1196;23138;-74
2021/03/26 08:50:20;;;;;;;66.10;38.63;;;;;;;11.73;65.64;99273.57;240096;1193;23134;-74
2021/03/26 08:55:38;;;;;;;64.33;37.40;;;;;;;12.07;65.18;99280.76;240278;1193;23729;-73
2021/03/26 09:01:23;;;;;;;61.50;35.65;;;;;;;12.39;64.80;99281.22;240378;1193;23561;-74
2021/03/26 09:06:31;;;;;;;48.15;29.50;;;;;;;12.68;61.70;99283.80;239852;1196;23968;-74
2021/03/26 09:12:11;;;;;;;53.80;31.90;;;;;;;12.81;60.57;99284.96;240312;1199;23127;-73
2021/03/26 09:17:32;;;;;;;46.40;29.45;;;;;;;13.04;60.55;99285.17;240214;1193;23162;-74
2021/03/26 09:23:07;;;;;;;39.93;26.00;;;;;;;13.30;57.84;99293.65;240381;1193;23103;-74
2021/03/26 09:28:27;;;;;;;39.25;23.20;;;;;;;13.46;57.65;99295.03;240145;1196;23138;-74
2021/03/26 09:33:30;;;;;;;;;;;;;;;13.63;56.00;99289.09;240142;1196;23166;-74
2021/03/26 09:39:05;;;;;;;32.00;19.60;;;;;;;13.85;53.70;99293.83;240058;1193;21594;-73
2021/03/26 09:44:34;;;;;;;37.25;24.05;;;;;;;14.02;54.51;99287.07;240113;1196;23104;-74
2021/03/26 09:49:39;;;;;;;;;;;;;;;14.26;53.19;99281.47;240139;1201;23585;-74
2021/03/26 09:54:46;;;;;;;29.60;20.17;;;;;;;14.31;51.32;99281.38;239946;1196;21647;-74
2021/03/26 09:59:48;;;;;;;32.03;20.40;;;;;;;14.34;50.48;99282.66;240297;1193;23107;-74
2021/03/26 10:05:20;;;;;;;25.30;16.73;;;;;;;14.51;51.79;99279.36;240214;1193;23110;-75
2021/03/26 10:10:43;;;;;;;29.83;19.33;;;;;;;14.68;47.71;99257.98;240772;1193;23166;-74
2021/03/26 10:15:56;;;;;;;27.07;19.13;;;;;;;14.87;51.53;99265.11;240130;1193;23117;-75
2021/03/26 10:21:01;;;;;;;30.57;19.70;;;;;;;15.16;51.77;99262.00;240625;1195;23238;-75
2021/03/26 10:26:07;;;;;;;31.70;19.13;;;;;;;15.32;50.83;99270.54;241382;1193;23276;-75
2021/03/26 10:31:17;;;;;;;31.00;20.60;;;;;;;15.46;49.92;99265.07;240271;1196;23120;-77
2021/03/26 10:36:57;;;;;;;27.70;18.50;;;;;;;15.53;49.69;99259.23;240014;1195;26070;-73
2021/03/26 10:42:06;;;;;;;25.95;16.20;;;;;;;15.60;46.54;99256.89;240143;1196;23108;-76
2021/03/26 10:47:50;;;;;;;28.45;17.60;;;;;;;15.55;47.14;99252.40;240242;1196;23226;-75
2021/03/26 10:53:15;;;;;;;30.43;17.70;;;;;;;15.63;47.19;99250.08;240403;1193;23138;-75
2021/03/26 10:58:33;;;;;;;27.15;19.05;;;;;;;15.78;47.37;99235.35;241626;1193;23241;-75
2021/03/26 11:03:46;;;;;;;25.63;16.53;;;;;;;15.99;47.52;99236.44;240172;1196;26580;-75
2021/03/26 11:09:12;;;;;;;23.85;16.35;;;;;;;16.21;47.68;99229.33;240528;1193;23122;-75
2021/03/26 11:14:36;;;;;;;26.27;16.83;;;;;;;16.49;47.96;99224.44;240147;1193;23096;-75
2021/03/26 11:20:06;;;;;;;24.60;16.95;;;;;;;16.59;46.92;99212.52;240092;1193;24872;-74
2021/03/26 11:25:21;;;;;;;23.83;14.87;;;;;;;16.76;45.58;99225.27;240187;1193;23416;-74
2021/03/26 11:30:39;;;;;;;22.25;13.15;;;;;;;16.98;44.75;99218.11;240356;1196;26166;-75
2021/03/26 11:35:44;;;;;;;19.25;13.40;;;;;;;16.97;45.37;99200.28;239918;1196;23197;-75
2021/03/26 11:40:59;;;;;;;21.70;14.90;;;;;;;16.90;43.29;99201.57;240159;1193;24267;-75
2021/03/26 11:46:35;;;;;;;26.35;15.55;;;;;;;16.89;44.57;99197.27;239881;1196;23109;-75
2021/03/26 11:52:03;;;;;;;23.25;14.45;;;;;;;16.92;44.35;99190.42;239837;1199;23176;-75
2021/03/26 11:57:29;;;;;;;22.57;14.17;;;;;;;17.09;44.65;99184.19;240281;1193;23246;-74
2021/03/26 12:02:42;;;;;;;20.45;12.90;;;;;;;17.26;41.46;99178.75;239875;1196;23338;-75
2021/03/26 12:08:00;;;;;;;20.57;13.57;;;;;;;17.26;42.27;99175.22;240402;1193;23123;-75
2021/03/26 12:13:31;;;;;;;20.45;12.20;;;;;;;17.39;44.01;99173.42;240278;1193;23132;-75
2021/03/26 12:19:04;;;;;;;23.15;15.40;;;;;;;17.55;43.24;99157.45;240087;1196;23161;-74
2021/03/26 12:24:36;;;;;;;20.55;12.45;;;;;;;17.53;40.18;99155.07;240159;1198;25988;-74
2021/03/26 12:30:08;;;;;;;19.30;11.90;;;;;;;17.32;39.08;99154.18;240042;1196;23114;-75
2021/03/26 12:35:31;;;;;;;17.73;10.67;;;;;;;17.30;40.54;99153.73;240013;1196;23114;-75
2021/03/26 12:40:42;;;;;;;16.10;10.90;;;;;;;17.35;39.66;99145.41;241639;1196;23113;-75
2021/03/26 12:46:01;;;;;;;15.85;10.38;;;;;;;17.57;39.81;99136.23;239977;1193;23096;-76
2021/03/26 12:51:16;;;;;;;17.25;11.45;;;;;;;17.68;41.13;99132.03;239909;1193;23126;-76
2021/03/26 12:56:33;;;;;;;20.87;12.70;;;;;;;17.88;39.79;99121.56;240158;1199;23206;-75
2021/03/26 13:01:40;;;;;;;20.77;11.67;;;;;;;17.82;39.20;99128.31;239938;1193;23140;-76
2021/03/26 13:06:47;;;;;;;20.10;11.40;;;;;;;17.48;38.64;99113.84;240002;1194;23108;-75
2021/03/26 13:12:12;;;;;;;16.80;10.90;;;;;;;17.32;39.44;99124.40;240032;1199;24759;-74
2021/03/26 13:17:18;;;;;;;17.27;10.77;;;;;;;17.08;38.82;99120.34;240169;1193;23294;-75
2021/03/26 13:22:24;;;;;;;17.43;10.53;;;;;;;16.93;39.69;99111.63;240848;1193;23104;-75
2021/03/26 13:27:46;;;;;;;16.33;10.07;;;;;;;16.85;39.34;99106.22;239969;1197;23121;-75
2021/03/26 13:32:58;;;;;;;17.43;9.90;;;;;;;16.72;39.80;99108.00;239823;1196;23564;-75
2021/03/26 13:38:29;;;;;;;14.60;8.90;;;;;;;16.75;40.10;99107.35;240138;1199;23098;-74
2021/03/26 13:43:42;;;;;;;17.80;9.45;;;;;;;16.75;39.54;99100.02;240006;1193;23112;-74
2021/03/26 13:48:46;;;;;;;15.70;9.75;;;;;;;16.77;39.53;99096.98;240357;1196;23109;-74
2021/03/26 13:54:01;;;;;;;16.00;9.20;;;;;;;16.78;39.48;99095.88;239947;1195;23326;-75
2021/03/26 13:59:47;;;;;;;16.27;9.17;;;;;;;16.82;39.61;99099.53;240053;1195;23488;-75
2021/03/26 14:04:56;;;;;;;17.53;9.87;;;;;;;16.79;39.10;99092.06;239884;1196;23124;-74
2021/03/26 14:10:27;;;;;;;18.93;10.80;;;;;;;16.71;39.92;99085.55;240095;1193;23112;-74
2021/03/26 14:15:31;;;;;;;16.17;10.97;;;;;;;16.67;39.64;99081.11;240276;1193;23106;-74
2021/03/26 14:20:46;;;;;;;17.20;10.60;;;;;;;16.63;40.11;99078.23;239977;1193;23098;-74
2021/03/26 14:25:59;;;;;;;18.60;11.40;;;;;;;16.66;40.40;99072.21;240062;1196;25581;-74
2021/03/26 14:31:14;;;;;;;15.85;10.45;;;;;;;16.77;39.82;99072.64;240204;1193;23126;-75
2021/03/26 14:36:23;;;;;;;17.13;10.00;;;;;;;16.91;40.15;99067.06;240346;1193;23091;-76
2021/03/26 14:41:40;;;;;;;19.05;8.50;;;;;;;17.00;40.54;99065.14;240401;1195;23141;-76
2021/03/26 14:47:03;;;;;;;13.80;10.20;;;;;;;17.05;39.96;99050.63;240221;1193;23127;-76
2021/03/26 14:52:18;;;;;;;18.05;10.95;;;;;;;17.24;39.89;99058.36;239926;1196;23197;-74
2021/03/26 14:57:29;;;;;;;18.70;11.15;;;;;;;17.31;39.00;99049.73;240569;1193;23116;-75
2021/03/26 15:02:43;;;;;;;12.50;8.10;;;;;;;17.17;38.96;99048.03;240766;1193;23323;-76
2021/03/26 15:07:49;;;;;;;9.07;6.17;;;;;;;17.15;39.39;99046.77;240366;1193;23308;-75
2021/03/26 15:13:45;;;;;;;10.85;7.55;;;;;;;17.00;39.77;99045.38;240076;1196;23223;-75
2021/03/26 15:19:08;;;;;;;13.10;8.10;;;;;;;16.72;39.57;99045.78;239661;1196;23307;-76
2021/03/26 15:24:40;;;;;;;15.10;9.30;;;;;;;16.46;40.12;99043.13;239704;1196;23255;-75
2021/03/26 15:29:55;;;;;;;15.67;9.57;;;;;;;16.33;40.79;99042.98;239603;1196;23123;-75
2021/03/26 15:35:11;;;;;;;16.90;10.70;;;;;;;16.24;41.00;99034.08;239806;1193;23115;-75
2021/03/26 15:40:28;;;;;;;17.30;10.20;;;;;;;16.14;41.48;99031.71;239708;1193;23131;-76
2021/03/26 15:45:35;;;;;;;15.43;10.43;;;;;;;16.11;41.60;99029.65;239647;1197;23115;-75
2021/03/26 15:50:49;;;;;;;17.45;10.65;;;;;;;16.06;41.92;99022.48;239885;1193;23109;-75
2021/03/26 15:56:01;;;;;;;20.20;11.00;;;;;;;15.99;41.97;99025.69;239890;1196;26386;-75
2021/03/26 16:01:38;;;;;;;18.20;11.90;;;;;;;15.91;42.12;99021.85;239541;1193;26189;-74
2021/03/26 16:07:02;;;;;;;16.70;10.50;;;;;;;15.87;42.17;99026.30;239690;1199;23111;-75
2021/03/26 16:12:27;;;;;;;18.10;11.13;;;;;;;15.81;42.43;99016.78;239744;1193;23279;-76
2021/03/26 16:17:30;;;;;;;21.25;11.80;;;;;;;15.74;42.43;99025.31;239699;1193;23099;-75
2021/03/26 16:22:39;;;;;;;18.20;11.90;;;;;;;15.66;42.67;99014.52;239661;1194;23111;-74
2021/03/26 16:28:06;;;;;;;22.43;13.03;;;;;;;15.57;42.40;99017.17;239668;1196;23160;-75
2021/03/26 16:33:28;;;;;;;23.77;13.33;;;;;;;15.49;42.65;99018.77;239568;1193;23084;-75
2021/03/26 16:39:12;;;;;;;23.35;13.50;;;;;;;15.42;43.09;99020.33;240004;1193;23106;-75
2021/03/26 16:44:42;;;;;;;23.83;12.87;;;;;;;15.33;43.27;99033.80;239739;1198;23108;-74
2021/03/26 16:50:07;;;;;;;21.45;12.70;;;;;;;15.21;43.25;99037.91;239649;1196;23110;-75
2021/03/26 16:55:32;;;;;;;23.90;14.33;;;;;;;15.03;43.11;99045.13;239837;1199;23103;-75
2021/03/26 17:01:14;;;;;;;19.20;12.30;;;;;;;14.72;44.07;99045.16;239847;1193;23189;-75
2021/03/26 17:06:47;;;;;;;18.50;11.90;;;;;;;14.27;44.76;99034.36;239899;1198;26258;-75
2021/03/26 17:11:52;;;;;;;25.95;13.45;;;;;;;13.92;45.14;99037.59;239722;1193;23091;-75
2021/03/26 17:16:55;;;;;;;19.80;11.90;;;;;;;13.55;45.95;99039.45;239740;1199;23119;-75
2021/03/26 17:22:34;;;;;;;28.70;17.98;;;;;;;13.20;46.93;99043.65;239737;1193;23123;-74
2021/03/26 17:27:52;;;;;;;21.93;13.20;;;;;;;12.84;47.41;99045.91;239722;1193;23191;-75
2021/03/26 17:33:12;;;;;;;18.95;12.60;;;;;;;12.48;48.63;99048.42;239598;1193;23075;-75
2021/03/26 17:38:32;;;;;;;25.63;14.57;;;;;;;12.15;49.17;99046.48;239731;1193;25091;-75
2021/03/26 17:44:16;;;;;;;30.70;15.30;;;;;;;11.90;49.94;99049.52;239618;1193;23103;-75
2021/03/26 17:49:35;;;;;;;31.20;16.25;;;;;;;11.63;50.58;99048.27;239613;1199;23755;-75
2021/03/26 17:55:09;;;;;;;28.60;16.40;;;;;;;11.38;50.83;99052.86;239579;1196;24569;-77
2021/03/26 18:00:58;;;;;;;27.57;16.47;;;;;;;11.17;51.50;99054.98;239653;1199;23117;-75
2021/03/26 18:06:43;;;;;;;29.15;17.00;;;;;;;10.95;52.12;99050.94;239734;1193;23414;-75
2021/03/26 18:12:32;;;;;;;20.10;12.33;;;;;;;10.74;52.87;99052.98;239789;1193;23130;-74
2021/03/26 18:17:41;;;;;;;23.77;14.37;;;;;;;10.58;53.11;99064.94;239540;1196;23130;-75
2021/03/26 18:22:53;;;;;;;20.70;12.50;;;;;;;10.39;53.48;99057.56;239712;1193;23105;-74
2021/03/26 18:28:31;;;;;;;35.00;20.35;;;;;;;10.28;53.84;99056.84;239882;1194;23170;-74
2021/03/26 18:33:59;;;;;;;45.77;26.03;;;;;;;10.23;54.23;99056.08;239608;1196;23130;-76
2021/03/26 18:39:38;;;;;;;57.90;33.70;;;;;;;10.15;54.49;99051.31;239581;1196;23134;-74
2021/03/26 18:44:56;;;;;;;56.77;31.97;;;;;;;10.02;54.77;99050.86;239592;1195;23186;-74
2021/03/26 18:50:36;;;;;;;58.60;33.40;;;;;;;9.88;54.93;99055.23;239657;1193;23099;-75
2021/03/26 18:56:07;;;;;;;56.90;33.85;;;;;;;9.69;55.12;99053.17;239763;1194;23115;-75
2021/03/26 19:01:38;;;;;;;58.95;33.60;;;;;;;9.53;55.77;99051.66;239588;1197;23211;-74
2021/03/26 19:07:12;;;;;;;74.40;40.35;;;;;;;9.40;56.17;99048.50;239721;1193;23105;-75
2021/03/26 19:13:06;;;;;;;78.05;43.50;;;;;;;9.30;56.14;99055.75;239706;1193;23102;-75
2021/03/26 19:18:13;;;;;;;101.40;54.00;;;;;;;9.19;56.77;99046.95;239577;1199;23267;-74
2021/03/26 19:23:17;;;;;;;98.03;54.13;;;;;;;9.13;57.12;99058.75;239763;1193;23285;-74
2021/03/26 19:28:25;;;;;;;93.37;51.50;;;;;;;9.07;57.12;99061.42;239943;1193;23703;-75
2021/03/26 19:33:55;;;;;;;95.40;51.43;;;;;;;9.02;57.08;99058.78;239786;1195;23115;-74
2021/03/26 19:39:28;;;;;;;88.28;49.48;;;;;;;8.95;57.58;99054.78;239774;1193;23094;-75
2021/03/26 19:44:46;;;;;;;90.07;49.33;;;;;;;8.85;57.64;99059.05;239710;1193;23273;-75
2021/03/26 19:49:57;;;;;;;95.50;48.30;;;;;;;8.80;57.83;99053.74;239605;1196;24731;-74
2021/03/26 19:55:18;;;;;;;93.83;50.50;;;;;;;8.83;58.12;99055.08;239482;1193;23108;-74
2021/03/26 20:00:44;;;;;;;93.00;52.03;;;;;;;8.90;58.58;99061.73;239714;1193;23115;-75
2021/03/26 20:05:53;;;;;;;105.73;54.63;;;;;;;8.96;58.52;99057.17;239765;1196;23120;-75
2021/03/26 20:11:09;;;;;;;111.43;57.47;;;;;;;8.96;58.71;99061.73;239618;1199;23116;-74
2021/03/26 20:16:18;;;;;;;100.97;54.57;;;;;;;8.93;59.04;99063.06;239539;1196;23121;-75
2021/03/26 20:21:30;;;;;;;104.90;54.90;;;;;;;8.94;58.79;99064.67;239989;1193;23152;-74
2021/03/26 20:26:47;;;;;;;110.33;58.43;;;;;;;8.97;59.18;99066.80;239749;1193;23125;-75
2021/03/26 20:32:03;;;;;;;116.27;61.83;;;;;;;8.99;59.27;99064.64;239674;1197;23141;-74
2021/03/26 20:37:23;;;;;;;119.30;64.05;;;;;;;9.00;59.53;99063.58;239809;1199;23109;-74
2021/03/26 20:43:17;;;;;;;117.73;63.38;;;;;;;9.06;60.09;99051.80;239689;1193;23244;-74
2021/03/26 20:48:49;;;;;;;115.15;61.65;;;;;;;9.11;59.83;99061.70;239434;1193;23108;-74
2021/03/26 20:54:12;;;;;;;109.30;59.85;;;;;;;9.12;59.94;99052.61;239602;1196;23105;-75
2021/03/26 20:59:25;;;;;;;123.20;63.90;;;;;;;9.10;59.69;99056.63;239559;1193;23229;-75
2021/03/26 21:04:37;;;;;;;120.40;66.05;;;;;;;9.06;60.05;99061.70;239782;1196;23116;-75
2021/03/26 21:09:51;;;;;;;112.70;60.93;;;;;;;9.00;60.10;99063.58;239572;1195;23134;-74
2021/03/26 21:15:12;;;;;;;107.35;57.30;;;;;;;8.95;60.29;99066.25;239463;1193;23095;-74
2021/03/26 21:20:24;;;;;;;102.77;53.23;;;;;;;8.94;61.11;99064.67;239605;1196;23252;-74
2021/03/26 21:25:50;;;;;;;85.92;49.88;;;;;;;8.94;61.14;99059.33;239598;1199;23109;-75
2021/03/26 21:31:21;;;;;;;82.67;45.73;;;;;;;8.85;61.13;99051.04;239528;1196;23113;-74
2021/03/26 21:36:43;;;;;;;87.65;49.60;;;;;;;8.72;61.44;99056.95;239796;1196;23377;-74
2021/03/26 21:42:00;;;;;;;95.93;52.20;;;;;;;8.56;61.24;99054.30;239731;1193;23128;-74
2021/03/26 21:47:21;;;;;;;93.13;51.57;;;;;;;8.42;62.11;99057.73;239650;1198;23129;-75
2021/03/26 21:53:01;;;;;;;95.80;50.60;;;;;;;8.27;61.70;99054.00;239771;1199;28458;-73
2021/03/26 21:58:12;;;;;;;92.83;51.23;;;;;;;8.17;62.08;99053.97;239679;1193;23109;-74
2021/03/26 22:03:52;;;;;;;99.27;52.37;;;;;;;8.12;62.57;99059.31;239632;1193;23090;-75
2021/03/26 22:09:20;;;;;;;94.00;50.25;;;;;;;8.05;62.24;99055.02;239530;1196;23134;-75
2021/03/26 22:14:46;;;;;;;91.00;48.17;;;;;;;7.94;62.03;99050.73;239636;1193;23117;-74
2021/03/26 22:19:58;;;;;;;87.90;46.67;;;;;;;7.80;62.01;99062.98;239573;1199;23103;-75
2021/03/26 22:25:07;;;;;;;77.10;43.10;;;;;;;7.64;62.31;99060.27;239674;1196;23112;-74
2021/03/26 22:30:16;;;;;;;77.40;42.10;;;;;;;7.51;62.82;99044.75;239607;1193;23109;-74
2021/03/26 22:35:25;;;;;;;85.77;43.63;;;;;;;7.44;62.35;99046.86;239687;1193;23280;-74
2021/03/26 22:40:41;;;;;;;81.80;42.17;;;;;;;7.43;62.36;99042.58;239827;1199;26194;-74
2021/03/26 22:46:03;;;;;;;81.43;40.97;;;;;;;7.48;62.77;99037.28;239812;1196;23115;-74
2021/03/26 22:51:43;;;;;;;78.30;40.13;;;;;;;7.50;62.56;99038.63;239524;1199;23098;-73
2021/03/26 22:57:27;;;;;;;83.70;43.87;;;;;;;7.45;62.38;99040.47;239577;1196;23116;-74
2021/03/26 23:02:30;;;;;;;84.15;44.45;;;;;;;7.39;62.39;99031.66;239740;1196;23131;-74
2021/03/26 23:07:38;;;;;;;87.33;45.07;;;;;;;7.33;62.43;99020.17;239654;1199;27368;-73
2021/03/26 23:12:42;;;;;;;72.90;36.80;;;;;;;7.27;62.21;99023.08;239611;1193;23269;-74
2021/03/26 23:17:57;;;;;;;71.93;38.17;;;;;;;7.26;62.60;99027.61;239666;1193;23103;-74
2021/03/26 23:23:05;;;;;;;78.87;38.60;;;;;;;7.30;62.65;99017.22;239739;1193;23120;-74
2021/03/26 23:28:31;;;;;;;80.53;39.93;;;;;;;7.40;62.97;99025.27;239713;1193;23157;-74
2021/03/26 23:33:41;;;;;;;83.25;42.05;;;;;;;7.51;62.93;99016.24;239657;1196;23103;-74
2021/03/26 23:38:52;;;;;;;77.28;40.00;;;;;;;7.61;62.96;99018.14;239787;1196;23102;-75
2021/03/26 23:44:06;;;;;;;79.50;39.17;;;;;;;7.69;62.80;99009.63;239595;1193;23131;-74
2021/03/26 23:49:14;;;;;;;72.53;38.90;;;;;;;7.74;62.63;99013.34;239641;1196;23183;-74
2021/03/26 23:54:38;;;;;;;73.00;38.80;;;;;;;7.73;62.76;99004.55;239780;1193;23836;-74
2021/03/26 23:59:41;;;;;;;74.27;37.57;;;;;;;7.74;61.90;98997.34;239622;1199;23103;-74
